Jamshedpur, Sonari Airport (VEJS)

NameSonari Airport
CityJamshedpur
CountryIndia
ICAOVEJS
IATAIXW
Altitude146 m
CoordinatesGoogle Map
Live Air TrafficLiveATC.net
METARVEJS 221000Z 23006KT 3000 TS SCT020 SCT025 FEW030CB BKN100 42/17 Q1001
2019-05-22 10:00:00 Wind: Southwest (230°) 3.09 m/s - Visibility: 3000 m - Weather: Thunderstorm - Temperature: 42 °C - Dew point: 17 °C - Humidity: 23.2% - Pressure: 1001 hPa
Statistics

The table below shows the detailed information of all flights to/from Jamshedpur, Sonari Airport (VEJS).